Terminal Aerodrome Forecast
Issued by NWS

Home | Current Version | Previous Version | Text Only | Print | Product List | Glossary Off
Versions: 1 2 3 4 5 6 7 8 9 10 11 12 13 14 15 16 17 18 19 20

000
FTUS41 KCLE 201742
TAFFDY
TAF
KFDY 201742Z 2018/2118 07010G20KT P6SM VCSH OVC025
      TEMPO 2018/2021 3SM -TSRA OVC015CB
     FM202100 09015G22KT P6SM BKN060
     FM210200 12012KT P6SM BKN080
     FM210500 16008KT 5SM -SHRA VCTS OVC050CB
     FM210900 18008KT 4SM -RA BR OVC020
     FM211500 21015G25KT P6SM BKN025=

USA.gov is the U.S. government's official web portal to all federal, state and local government web resources and services.